createdAt,value
2018-11-13T00:01:08.601Z,11.03
2018-11-13T00:03:36.459Z,10.80
2018-11-13T00:06:04.268Z,11.03
2018-11-13T00:08:32.161Z,11.47
2018-11-13T00:10:59.972Z,11.03
2018-11-13T00:13:27.788Z,10.90
2018-11-13T00:15:55.682Z,11.00
2018-11-13T00:18:23.488Z,10.13
2018-11-13T00:20:51.328Z,11.30
2018-11-13T00:23:19.156Z,11.33
2018-11-13T00:25:46.981Z,10.43
2018-11-13T00:28:14.792Z,10.80
2018-11-13T00:30:42.867Z,11.13
2018-11-13T00:33:10.460Z,11.57
2018-11-13T00:35:38.305Z,10.80
2018-11-13T00:38:06.153Z,11.37
2018-11-13T00:40:34.000Z,11.13
2018-11-13T00:43:01.812Z,11.03
2018-11-13T00:45:29.727Z,11.43
2018-11-13T00:47:57.494Z,12.00
2018-11-13T00:50:25.324Z,12.43
2018-11-13T00:52:53.145Z,10.97
2018-11-13T00:55:20.984Z,11.70
2018-11-13T00:57:48.852Z,11.70
2018-11-13T01:00:17.894Z,11.40
2018-11-13T01:02:45.892Z,12.20
2018-11-13T01:05:15.902Z,12.07
2018-11-13T01:07:44.740Z,12.10
2018-11-13T01:10:13.068Z,10.70
2018-11-13T01:12:41.400Z,10.67
2018-11-13T01:15:10.271Z,11.87
2018-11-13T01:17:37.801Z,12.07
2018-11-13T01:20:05.699Z,11.60
2018-11-13T01:22:34.089Z,11.37
2018-11-13T01:25:01.445Z,11.70
2018-11-13T01:27:29.254Z,11.90
2018-11-13T01:29:57.976Z,13.73
2018-11-13T01:32:27.485Z,11.33
2018-11-13T01:34:55.416Z,13.07
2018-11-13T01:37:23.632Z,12.97
2018-11-13T01:39:51.560Z,11.50
2018-11-13T01:42:19.391Z,12.17
2018-11-13T01:44:47.236Z,12.10
2018-11-13T01:47:15.085Z,11.20
2018-11-13T01:49:42.910Z,12.07
2018-11-13T01:52:10.740Z,11.70
2018-11-13T01:54:38.593Z,12.00
2018-11-13T01:57:06.480Z,11.83
2018-11-13T01:59:34.373Z,11.83
2018-11-13T02:02:02.244Z,12.83
2018-11-13T02:04:30.184Z,12.10
2018-11-13T02:06:58.003Z,12.27
2018-11-13T02:09:25.852Z,12.00
2018-11-13T02:11:53.672Z,12.20
2018-11-13T02:14:21.512Z,11.60
2018-11-13T02:16:49.354Z,13.13
2018-11-13T02:19:17.161Z,11.90
2018-11-13T02:21:44.996Z,11.60
2018-11-13T02:24:12.820Z,10.40
2018-11-13T02:26:40.635Z,11.60
2018-11-13T02:29:08.463Z,11.60
2018-11-13T02:31:36.284Z,11.50
2018-11-13T02:34:04.141Z,11.30
2018-11-13T02:36:31.978Z,11.63
2018-11-13T02:38:59.769Z,11.30
2018-11-13T02:41:27.608Z,11.30
2018-11-13T02:43:55.433Z,11.90
2018-11-13T02:46:23.323Z,11.77
2018-11-13T02:48:51.141Z,10.63
2018-11-13T02:51:18.968Z,11.67
2018-11-13T02:53:46.788Z,11.67
2018-11-13T02:56:14.616Z,11.37
2018-11-13T02:58:42.448Z,12.00
2018-11-13T03:01:10.265Z,11.17
2018-11-13T03:03:38.115Z,12.50
2018-11-13T03:06:05.920Z,11.33
2018-11-13T03:08:33.769Z,10.17
2018-11-13T03:11:01.585Z,10.97
2018-11-13T03:13:29.443Z,11.33
2018-11-13T03:15:57.281Z,11.80
2018-11-13T03:18:25.096Z,10.80
2018-11-13T03:20:52.920Z,11.00
2018-11-13T03:23:20.908Z,12.40
2018-11-13T03:25:48.727Z,11.73
2018-11-13T03:28:16.539Z,12.40
2018-11-13T03:30:44.385Z,11.47
2018-11-13T03:33:12.201Z,11.13
2018-11-13T03:35:40.012Z,12.30
2018-11-13T03:38:07.838Z,12.33
2018-11-13T03:40:35.688Z,11.77
2018-11-13T03:43:03.480Z,11.93
2018-11-13T03:45:31.279Z,12.37
2018-11-13T03:47:59.128Z,12.37
2018-11-13T03:50:26.946Z,12.67
2018-11-13T03:52:54.820Z,12.50
2018-11-13T03:55:22.616Z,12.20
2018-11-13T03:57:50.795Z,13.07
2018-11-13T04:00:19.871Z,12.37
2018-11-13T04:02:47.713Z,13.10
2018-11-13T04:05:16.638Z,12.80
2018-11-13T04:07:46.676Z,13.20
2018-11-13T04:10:15.640Z,12.10
2018-11-13T04:12:43.728Z,12.93
2018-11-13T04:15:13.016Z,11.50
2018-11-13T04:17:41.100Z,13.07
2018-11-13T04:20:09.685Z,12.33
2018-11-13T04:22:37.535Z,12.03
2018-11-13T04:25:05.369Z,12.07
2018-11-13T04:27:33.193Z,12.90
2018-11-13T04:30:00.995Z,13.50
2018-11-13T04:32:28.819Z,11.83
2018-11-13T04:34:56.645Z,11.93
2018-11-13T04:37:24.655Z,11.80
2018-11-13T04:39:52.447Z,12.90
2018-11-13T04:42:20.294Z,12.60
2018-11-13T04:44:48.100Z,17.10
2018-11-13T04:47:15.925Z,23.60
2018-11-13T04:49:43.982Z,41.20
2018-11-13T04:52:11.788Z,14.97
2018-11-13T04:54:39.628Z,13.20
2018-11-13T04:57:07.556Z,14.17
2018-11-13T04:59:35.404Z,21.23
2018-11-13T05:02:03.216Z,15.23
2018-11-13T05:04:31.044Z,12.93
2018-11-13T05:06:58.936Z,13.63
2018-11-13T05:09:26.771Z,12.80
2018-11-13T05:11:54.624Z,13.80
2018-11-13T05:14:22.432Z,13.47
2018-11-13T05:16:50.301Z,13.20
2018-11-13T05:19:18.108Z,14.23
2018-11-13T05:21:45.949Z,14.17
2018-11-13T05:24:13.865Z,14.00
2018-11-13T05:26:41.807Z,15.93
2018-11-13T05:29:09.641Z,14.23
2018-11-13T05:31:37.463Z,14.80
2018-11-13T05:34:05.400Z,13.97
2018-11-13T05:36:33.226Z,13.80
2018-11-13T05:39:01.060Z,13.70
2018-11-13T05:41:28.916Z,14.00
2018-11-13T05:43:56.702Z,14.43
2018-11-13T05:46:24.528Z,13.47
2018-11-13T05:48:52.352Z,13.00
2018-11-13T05:51:20.171Z,14.50
2018-11-13T05:53:48.028Z,14.17
2018-11-13T05:56:15.844Z,13.50
2018-11-13T05:58:43.687Z,13.93
2018-11-13T06:01:11.517Z,14.10
2018-11-13T06:03:39.388Z,14.20
2018-11-13T06:06:08.057Z,13.77
2018-11-13T06:08:36.009Z,14.70
2018-11-13T06:11:03.763Z,14.90
2018-11-13T06:13:31.573Z,15.20
2018-11-13T06:15:59.400Z,15.13
2018-11-13T06:18:27.300Z,14.65
2018-11-13T06:20:55.036Z,15.30
2018-11-13T06:23:22.876Z,14.70
2018-11-13T06:25:50.687Z,14.25
2018-11-13T06:28:18.560Z,15.70
2018-11-13T06:30:46.476Z,15.77
2018-11-13T06:33:14.276Z,16.03
2018-11-13T06:35:42.086Z,15.40
2018-11-13T06:38:09.910Z,14.90
2018-11-13T06:40:37.725Z,15.37
2018-11-13T06:43:05.661Z,15.17
2018-11-13T06:45:33.492Z,15.57
2018-11-13T06:48:01.313Z,16.33
2018-11-13T06:50:29.140Z,16.10
2018-11-13T06:52:56.957Z,16.87
2018-11-13T06:55:31.847Z,22.43
2018-11-13T06:57:59.659Z,22.97
2018-11-13T07:00:27.508Z,19.40
2018-11-13T07:02:55.523Z,23.60
2018-11-13T07:05:23.340Z,21.03
2018-11-13T07:07:51.223Z,19.00
2018-11-13T07:10:20.351Z,18.50
2018-11-13T07:12:49.176Z,20.35
2018-11-13T07:15:20.308Z,21.40
2018-11-13T07:17:49.452Z,20.00
2018-11-13T07:20:18.379Z,19.03
2018-11-13T07:22:46.213Z,19.37
2018-11-13T07:25:14.399Z,20.25
2018-11-13T07:27:42.677Z,23.40
2018-11-13T07:30:11.304Z,21.20
2018-11-13T07:32:39.760Z,19.60
2018-11-13T07:35:08.334Z,18.27
2018-11-13T07:37:36.284Z,21.00
2018-11-13T07:40:04.317Z,19.20
2018-11-13T07:42:32.117Z,17.90
2018-11-13T07:44:59.952Z,24.55
2018-11-13T07:47:27.954Z,19.50
2018-11-13T07:49:55.673Z,19.70
2018-11-13T07:52:23.507Z,19.30
2018-11-13T07:54:51.352Z,18.30
2018-11-13T07:57:19.203Z,21.00
2018-11-13T07:59:47.040Z,20.67
2018-11-13T08:02:14.904Z,21.07
2018-11-13T08:04:42.737Z,21.50
2018-11-13T08:07:10.589Z,22.70
2018-11-13T08:09:38.400Z,19.80
2018-11-13T08:12:06.236Z,20.10
2018-11-13T08:14:34.068Z,20.20
2018-11-13T08:17:01.873Z,18.77
2018-11-13T08:19:29.704Z,22.27
2018-11-13T08:21:57.562Z,21.40
2018-11-13T08:24:25.416Z,20.60
2018-11-13T08:26:53.309Z,22.47
2018-11-13T08:29:21.151Z,18.70
2018-11-13T08:34:15.940Z,18.80
2018-11-13T08:36:43.781Z,20.27
2018-11-13T08:39:12.668Z,20.40
2018-11-13T08:41:40.495Z,20.55
2018-11-13T08:44:08.924Z,21.55
2018-11-13T08:46:36.794Z,22.00
2018-11-13T08:49:05.067Z,21.37
2018-11-13T08:51:32.912Z,20.70
2018-11-13T08:54:00.785Z,20.50
2018-11-13T08:56:28.619Z,21.35
2018-11-13T08:58:56.509Z,21.30
2018-11-13T09:01:24.360Z,20.70
2018-11-13T09:03:52.184Z,21.10
2018-11-13T09:06:20.000Z,21.53
2018-11-13T09:08:47.884Z,24.70
2018-11-13T09:11:15.749Z,22.30
2018-11-13T09:13:43.544Z,24.10
2018-11-13T09:16:11.361Z,22.35
2018-11-13T09:18:39.164Z,22.33
2018-11-13T09:21:07.036Z,22.63
2018-11-13T09:23:34.953Z,20.70
2018-11-13T09:26:02.787Z,20.07
2018-11-13T09:28:30.587Z,19.73
2018-11-13T09:30:58.587Z,19.23
2018-11-13T09:33:26.306Z,20.13
2018-11-13T09:35:54.186Z,20.30
2018-11-13T09:38:21.960Z,20.17
2018-11-13T09:40:49.804Z,19.50
2018-11-13T09:43:17.636Z,19.17
2018-11-13T09:45:45.506Z,18.30
2018-11-13T09:48:13.325Z,18.60
2018-11-13T09:50:41.143Z,18.50
2018-11-13T09:53:08.955Z,19.27
2018-11-13T09:55:36.772Z,18.20
2018-11-13T09:58:04.897Z,19.20
2018-11-13T10:00:32.875Z,17.50
2018-11-13T10:03:02.017Z,17.07
2018-11-13T10:05:29.068Z,16.43
2018-11-13T10:07:57.124Z,16.50
2018-11-13T10:10:25.680Z,15.50
2018-11-13T10:12:53.422Z,15.05
2018-11-13T10:15:24.636Z,15.80
2018-11-13T10:17:52.537Z,14.63
2018-11-13T10:20:20.315Z,14.37
2018-11-13T10:22:49.551Z,15.50
2018-11-13T10:25:17.364Z,14.67
2018-11-13T10:27:45.242Z,14.50
2018-11-13T10:30:14.280Z,14.60
2018-11-13T10:32:42.617Z,13.70
2018-11-13T10:35:11.449Z,15.07
2018-11-13T10:37:39.933Z,15.50
2018-11-13T10:40:08.954Z,14.80
2018-11-13T10:42:36.736Z,15.97
2018-11-13T10:45:05.157Z,14.07
2018-11-13T10:47:33.009Z,13.73
2018-11-13T10:50:00.881Z,16.10
2018-11-13T10:52:28.677Z,14.50
2018-11-13T10:54:56.540Z,14.97
2018-11-13T10:57:24.340Z,14.70
2018-11-13T10:59:52.164Z,14.70
2018-11-13T11:02:25.635Z,15.10
2018-11-13T11:04:53.439Z,14.83
2018-11-13T11:07:21.264Z,16.57
2018-11-13T11:09:49.075Z,16.00
2018-11-13T11:12:16.929Z,18.30
2018-11-13T11:14:44.724Z,17.57
2018-11-13T11:17:12.528Z,16.23
2018-11-13T11:19:41.340Z,18.10
2018-11-13T11:22:09.148Z,20.57
2018-11-13T11:24:36.980Z,18.23
2018-11-13T11:27:04.781Z,17.90
2018-11-13T11:29:32.641Z,16.97
2018-11-13T11:32:00.438Z,17.10
2018-11-13T11:34:28.320Z,16.90
2018-11-13T11:36:56.164Z,17.03
2018-11-13T11:39:23.992Z,17.47
2018-11-13T11:41:51.792Z,17.07
2018-11-13T11:44:19.632Z,16.20
2018-11-13T11:46:47.438Z,17.23
2018-11-13T11:49:15.316Z,16.83
2018-11-13T11:51:43.132Z,15.83
2018-11-13T11:54:10.964Z,17.40
2018-11-13T11:56:38.807Z,17.23
2018-11-13T11:59:06.619Z,17.17
2018-11-13T12:01:34.420Z,16.27
2018-11-13T12:04:02.248Z,17.47
2018-11-13T12:06:30.072Z,17.20
2018-11-13T12:08:57.872Z,17.17
2018-11-13T12:11:25.728Z,16.93
2018-11-13T12:13:53.566Z,16.70
2018-11-13T12:16:21.393Z,16.33
2018-11-13T12:18:49.244Z,16.57
2018-11-13T12:21:17.083Z,17.10
2018-11-13T12:23:44.885Z,15.93
2018-11-13T12:26:12.904Z,16.90
2018-11-13T12:28:40.712Z,15.70
2018-11-13T12:31:08.570Z,13.97
2018-11-13T12:33:36.360Z,13.73
2018-11-13T12:36:04.220Z,14.23
2018-11-13T12:38:32.076Z,14.90
2018-11-13T12:40:59.945Z,13.20
2018-11-13T12:43:27.744Z,13.90
2018-11-13T12:45:55.572Z,12.63
2018-11-13T12:48:23.399Z,12.80
2018-11-13T12:50:56.784Z,13.63
2018-11-13T12:53:24.584Z,14.07
2018-11-13T12:55:52.541Z,13.80
2018-11-13T12:58:20.236Z,12.47
2018-11-13T13:00:48.064Z,13.77
2018-11-13T13:03:15.888Z,12.87
2018-11-13T13:05:43.727Z,11.83
2018-11-13T13:08:11.564Z,13.30
2018-11-13T13:10:39.385Z,11.87
2018-11-13T13:13:07.220Z,12.13
2018-11-13T13:15:35.020Z,12.63
2018-11-13T13:18:02.844Z,11.87
2018-11-13T13:20:30.668Z,11.80
2018-11-13T13:22:58.552Z,11.73
2018-11-13T13:25:26.395Z,11.57
2018-11-13T13:27:54.264Z,10.60
2018-11-13T13:30:23.405Z,9.50
2018-11-13T13:32:51.473Z,10.30
2018-11-13T13:35:36.128Z,11.50
2018-11-13T13:38:04.301Z,10.27
2018-11-13T13:40:32.132Z,10.13
2018-11-13T13:42:59.972Z,10.47
2018-11-13T13:45:28.185Z,10.33
2018-11-13T13:47:56.496Z,10.13
2018-11-13T13:50:24.324Z,10.60
2018-11-13T13:52:52.236Z,10.70
2018-11-13T13:55:21.227Z,9.40
2018-11-13T13:57:48.696Z,10.20
2018-11-13T14:02:41.836Z,10.53
2018-11-13T14:05:09.916Z,10.60
2018-11-13T14:07:37.712Z,10.83
2018-11-13T14:10:05.699Z,10.30
2018-11-13T14:12:33.527Z,9.90
2018-11-13T14:15:01.552Z,10.10
2018-11-13T14:17:29.192Z,10.50
2018-11-13T14:19:57.008Z,10.17
2018-11-13T14:22:24.828Z,10.93
2018-11-13T14:24:52.688Z,11.43
2018-11-13T14:27:20.924Z,11.40
2018-11-13T14:29:48.748Z,13.00
2018-11-13T14:32:16.569Z,11.10
2018-11-13T14:34:44.393Z,11.87
2018-11-13T14:37:12.315Z,11.90
2018-11-13T14:39:40.157Z,14.00
2018-11-13T14:42:07.960Z,11.00
2018-11-13T14:44:35.808Z,13.20
2018-11-13T14:47:03.640Z,13.60
2018-11-13T14:49:31.473Z,14.80
2018-11-13T14:51:59.288Z,13.53
2018-11-13T14:54:27.125Z,14.83
2018-11-13T14:56:55.203Z,16.77
2018-11-13T14:59:23.027Z,15.20
2018-11-13T15:01:50.864Z,14.07
2018-11-13T15:04:18.672Z,15.30
2018-11-13T15:06:46.521Z,13.40
2018-11-13T15:09:14.324Z,14.10
2018-11-13T15:11:42.139Z,12.40
2018-11-13T15:14:09.958Z,14.17
2018-11-13T15:16:37.784Z,14.60
2018-11-13T15:19:05.601Z,14.03
2018-11-13T15:21:33.661Z,12.60
2018-11-13T15:24:01.242Z,12.50
2018-11-13T15:26:29.077Z,14.20
2018-11-13T15:28:56.940Z,12.80
2018-11-13T15:31:24.748Z,12.40
2018-11-13T15:33:52.585Z,12.87
2018-11-13T15:36:20.385Z,14.27
2018-11-13T15:38:48.220Z,13.20
2018-11-13T15:41:16.032Z,5.90
2018-11-13T15:43:43.864Z,4.80
2018-11-13T15:57:10.236Z,2.60
2018-11-13T15:59:38.082Z,2.97
2018-11-13T16:02:05.877Z,2.97
2018-11-13T16:04:33.702Z,3.33
2018-11-13T16:07:01.529Z,2.83
2018-11-13T16:09:29.340Z,3.40
2018-11-13T16:11:57.173Z,4.90
2018-11-13T16:14:25.029Z,4.83
2018-11-13T16:16:52.824Z,4.90
2018-11-13T16:19:20.672Z,5.47
2018-11-13T16:21:48.558Z,5.50
2018-11-13T16:24:16.352Z,4.87
2018-11-13T16:26:44.156Z,5.50
2018-11-13T16:29:14.012Z,5.20
2018-11-13T16:31:39.804Z,4.00
2018-11-13T16:34:07.629Z,4.90
2018-11-13T16:36:35.569Z,4.20
2018-11-13T16:39:03.519Z,5.93
2018-11-13T16:41:31.408Z,5.27
2018-11-13T16:43:59.211Z,6.40
2018-11-13T16:46:27.003Z,5.90
2018-11-13T16:48:54.847Z,4.37
2018-11-13T16:51:22.669Z,4.77
2018-11-13T16:53:58.170Z,5.40
2018-11-13T16:56:23.861Z,5.13
2018-11-13T16:58:51.700Z,4.90
2018-11-13T17:01:19.587Z,4.63
2018-11-13T17:03:47.431Z,4.90
2018-11-13T17:06:15.235Z,5.40
2018-11-13T17:08:42.995Z,4.83
2018-11-13T17:11:10.922Z,4.50
2018-11-13T17:13:38.660Z,4.70
2018-11-13T17:16:06.514Z,4.37
2018-11-13T17:18:34.313Z,4.07
2018-11-13T17:21:02.153Z,4.07
2018-11-13T17:23:30.050Z,3.70
2018-11-13T17:25:57.866Z,3.37
2018-11-13T17:28:25.616Z,2.63
2018-11-13T17:30:53.441Z,2.90
2018-11-13T17:33:21.257Z,2.30
2018-11-13T17:35:49.080Z,2.40
2018-11-13T17:38:16.881Z,2.17
2018-11-13T17:40:44.700Z,1.87
2018-11-13T17:43:12.524Z,1.60
2018-11-13T17:45:41.192Z,1.70
2018-11-13T17:48:09.648Z,1.60
2018-11-13T17:50:38.611Z,2.30
2018-11-13T17:53:06.690Z,1.60
2018-11-13T17:55:34.513Z,1.77
2018-11-13T17:58:06.616Z,1.80
2018-11-13T18:00:35.805Z,1.40
2018-11-13T18:03:04.352Z,1.70
2018-11-13T18:05:32.526Z,1.80
2018-11-13T18:08:01.212Z,1.80
2018-11-13T18:10:29.823Z,1.50
2018-11-13T18:12:57.656Z,1.57
2018-11-13T18:15:26.640Z,1.90
2018-11-13T18:17:54.483Z,2.17
2018-11-13T18:20:24.748Z,2.23
2018-11-13T18:22:52.577Z,1.93
2018-11-13T18:25:20.395Z,2.07
2018-11-13T18:27:50.536Z,1.87
2018-11-13T18:30:22.152Z,2.20
2018-11-13T18:32:50.352Z,2.20
2018-11-13T18:35:23.516Z,2.03
2018-11-13T18:37:52.083Z,2.37
2018-11-13T18:40:20.580Z,2.63
2018-11-13T18:42:49.188Z,2.50
2018-11-13T18:45:19.104Z,2.63
2018-11-13T18:47:46.976Z,2.60
2018-11-13T18:50:17.342Z,2.50
2018-11-13T18:52:45.176Z,2.63
2018-11-13T18:55:13.563Z,2.83
2018-11-13T18:57:41.899Z,3.37
2018-11-13T19:00:10.561Z,2.73
2018-11-13T19:02:38.420Z,3.10
2018-11-13T19:05:06.264Z,2.80
2018-11-13T19:07:34.088Z,2.77
2018-11-13T19:10:01.861Z,3.30
2018-11-13T19:12:29.780Z,3.47
2018-11-13T19:14:57.567Z,3.33
2018-11-13T19:17:25.477Z,3.77
2018-11-13T19:19:53.401Z,4.40
2018-11-13T19:22:21.096Z,3.97
2018-11-13T19:24:48.891Z,4.17
2018-11-13T19:27:16.724Z,4.37
2018-11-13T19:29:44.649Z,4.40
2018-11-13T19:32:12.436Z,4.40
2018-11-13T19:34:40.280Z,4.50
2018-11-13T19:37:08.095Z,5.17
2018-11-13T19:39:35.892Z,6.00
2018-11-13T19:42:03.733Z,5.50
2018-11-13T19:44:31.645Z,5.17
2018-11-13T19:46:59.458Z,4.97
2018-11-13T19:49:27.350Z,4.50
2018-11-13T19:51:55.128Z,5.00
2018-11-13T19:54:22.949Z,5.27
2018-11-13T19:56:50.764Z,5.80
2018-11-13T19:59:18.563Z,5.80
2018-11-13T20:01:46.435Z,6.30
2018-11-13T20:04:14.329Z,5.87
2018-11-13T20:06:42.066Z,6.33
2018-11-13T20:09:10.023Z,6.40
2018-11-13T20:11:37.831Z,6.13
2018-11-13T20:14:05.681Z,6.80
2018-11-13T20:16:33.500Z,6.67
2018-11-13T20:19:01.316Z,6.60
2018-11-13T20:21:29.143Z,6.77
2018-11-13T20:23:57.040Z,6.40
2018-11-13T20:26:24.879Z,7.17
2018-11-13T20:28:52.684Z,7.30
2018-11-13T20:31:20.647Z,7.80
2018-11-13T20:33:48.368Z,7.03
2018-11-13T20:36:16.169Z,7.93
2018-11-13T20:38:44.176Z,7.43
2018-11-13T20:41:11.825Z,8.40
2018-11-13T20:43:39.799Z,8.40
2018-11-13T20:46:07.594Z,7.80
2018-11-13T20:48:35.452Z,8.60
2018-11-13T20:51:03.243Z,8.50
2018-11-13T20:53:31.073Z,9.13
2018-11-13T20:55:58.924Z,9.97
2018-11-13T20:58:26.816Z,9.47
2018-11-13T21:00:54.640Z,9.70
2018-11-13T21:03:22.532Z,9.03
2018-11-13T21:05:50.356Z,9.83
2018-11-13T21:08:18.195Z,9.20
2018-11-13T21:10:46.103Z,10.00
2018-11-13T21:13:13.848Z,9.30
2018-11-13T21:15:41.684Z,8.90
2018-11-13T21:18:09.525Z,9.03
2018-11-13T21:20:37.397Z,9.20
2018-11-13T21:23:05.274Z,8.77
2018-11-13T21:25:33.124Z,7.80
2018-11-13T21:28:01.997Z,8.07
2018-11-13T21:30:29.921Z,8.70
2018-11-13T21:32:57.684Z,8.30
2018-11-13T21:35:25.516Z,8.40
2018-11-13T21:37:54.795Z,8.30
2018-11-13T21:40:23.762Z,9.07
2018-11-13T21:42:52.194Z,8.10
2018-11-13T21:45:21.039Z,7.50
2018-11-13T21:47:48.876Z,8.00
2018-11-13T21:50:18.021Z,8.00
2018-11-13T21:52:45.840Z,8.30
2018-11-13T21:55:14.932Z,7.73
2018-11-13T21:57:42.832Z,7.97
2018-11-13T22:00:11.500Z,8.43
2018-11-13T22:02:39.339Z,7.20
2018-11-13T22:05:07.813Z,7.63
2018-11-13T22:07:35.815Z,7.60
2018-11-13T22:10:04.054Z,8.70
2018-11-13T22:12:31.929Z,8.67
2018-11-13T22:14:59.721Z,7.90
2018-11-13T22:17:27.616Z,8.00
2018-11-13T22:19:55.364Z,8.67
2018-11-13T22:22:23.217Z,10.00
2018-11-13T22:24:51.067Z,8.60
2018-11-13T22:27:19.935Z,9.30
2018-11-13T22:29:47.823Z,8.37
2018-11-13T22:32:16.708Z,8.73
2018-11-13T22:34:44.576Z,9.13
2018-11-13T22:37:12.444Z,8.90
2018-11-13T22:39:40.288Z,7.97
2018-11-13T22:42:08.140Z,8.27
2018-11-13T22:44:35.955Z,9.80
2018-11-13T22:47:03.748Z,9.73
2018-11-13T22:49:31.620Z,8.90
2018-11-13T22:51:59.416Z,9.80
2018-11-13T22:54:28.303Z,9.80
2018-11-13T22:56:56.200Z,9.90
2018-11-13T22:59:24.048Z,9.33
2018-11-13T23:01:51.875Z,9.10
2018-11-13T23:04:19.688Z,9.03
2018-11-13T23:06:47.492Z,8.17
2018-11-13T23:09:16.335Z,9.77
2018-11-13T23:11:44.157Z,8.70
2018-11-13T23:14:11.971Z,8.93
2018-11-13T23:16:39.863Z,9.13
2018-11-13T23:19:07.701Z,8.73
2018-11-13T23:21:35.563Z,8.87
2018-11-13T23:24:03.534Z,8.87
2018-11-13T23:26:31.420Z,9.33
2018-11-13T23:28:59.286Z,9.50
2018-11-13T23:31:27.213Z,9.80
2018-11-13T23:33:56.034Z,9.37
2018-11-13T23:36:23.916Z,9.33
2018-11-13T23:38:51.748Z,9.20
2018-11-13T23:41:19.656Z,9.20
2018-11-13T23:43:48.527Z,9.77
2018-11-13T23:46:16.396Z,9.10
2018-11-13T23:48:44.245Z,10.17
2018-11-13T23:51:12.144Z,9.40
2018-11-13T23:53:41.035Z,9.30
2018-11-13T23:56:08.829Z,9.03
2018-11-13T23:58:36.672Z,10.20
